createdAt,value
2023-05-17T00:01:01.979Z,50.66
2023-05-17T00:05:55.234Z,49.26
2023-05-17T00:10:49.852Z,50.25
2023-05-17T00:15:43.025Z,51.69
2023-05-17T00:20:36.720Z,54.04
2023-05-17T00:25:30.134Z,54.01
2023-05-17T00:30:24.872Z,54.86
2023-05-17T00:35:18.101Z,56.56
2023-05-17T00:40:12.966Z,59.38
2023-05-17T00:45:07.443Z,62.09
2023-05-17T00:50:02.329Z,63.37
2023-05-17T00:54:55.585Z,64.53
2023-05-17T00:59:48.894Z,65.38
2023-05-17T01:04:42.763Z,65.45
2023-05-17T01:09:37.897Z,66.36
2023-05-17T01:14:42.868Z,67.84
2023-05-17T01:19:51.517Z,68.49
2023-05-17T01:24:54.155Z,69.77
2023-05-17T01:29:50.849Z,71.31
2023-05-17T01:34:44.266Z,72.59
2023-05-17T01:39:37.511Z,74.72
2023-05-17T01:44:39.338Z,76.32
2023-05-17T01:49:38.822Z,77.72
2023-05-17T01:54:38.160Z,78.99
2023-05-17T01:59:36.206Z,79.29
2023-05-17T02:04:31.309Z,79.55
2023-05-17T02:09:29.333Z,80.12
2023-05-17T02:14:22.527Z,81.02
2023-05-17T02:19:15.708Z,80.70
2023-05-17T02:24:08.868Z,80.74
2023-05-17T02:29:03.345Z,82.51
2023-05-17T02:33:57.784Z,81.94
2023-05-17T02:38:50.961Z,81.92
2023-05-17T02:43:44.056Z,80.50
2023-05-17T02:48:38.662Z,82.74
2023-05-17T02:53:31.810Z,84.04
2023-05-17T02:58:28.127Z,86.02
2023-05-17T03:03:24.738Z,88.06
2023-05-17T03:08:19.514Z,88.25
2023-05-17T03:13:13.777Z,90.14
2023-05-17T03:18:07.096Z,91.59
2023-05-17T03:23:02.194Z,92.79
2023-05-17T03:27:56.962Z,93.44
2023-05-17T03:32:50.499Z,93.21
2023-05-17T03:37:43.719Z,93.42
2023-05-17T03:42:37.058Z,93.69
2023-05-17T03:47:32.533Z,94.65
2023-05-17T03:52:26.193Z,95.56
2023-05-17T03:57:19.759Z,95.21
2023-05-17T04:02:12.938Z,95.31
2023-05-17T04:07:08.685Z,96.09
2023-05-17T04:12:02.668Z,95.69
2023-05-17T04:16:56.383Z,95.79
2023-05-17T04:21:52.198Z,96.02
2023-05-17T04:26:49.922Z,96.75
2023-05-17T04:31:47.187Z,96.46
2023-05-17T04:36:40.418Z,96.77
2023-05-17T04:41:34.338Z,97.32
2023-05-17T04:46:31.235Z,98.12
2023-05-17T04:51:24.626Z,98.36
2023-05-17T04:56:18.308Z,98.74
2023-05-17T05:01:12.129Z,98.20
2023-05-17T05:06:07.935Z,99.81
2023-05-17T05:11:02.290Z,100.00
2023-05-17T05:15:56.934Z,100.00
2023-05-17T05:20:51.272Z,100.00
2023-05-17T05:25:47.537Z,100.00
2023-05-17T05:30:41.097Z,100.00
2023-05-17T05:35:37.549Z,100.00
2023-05-17T05:40:31.093Z,100.00
2023-05-17T05:45:25.936Z,100.00
2023-05-17T05:50:23.136Z,100.00
2023-05-17T05:55:19.973Z,100.00
2023-05-17T06:00:14.516Z,100.00
2023-05-17T06:05:10.166Z,100.00
2023-05-17T06:10:03.498Z,100.00
2023-05-17T06:14:56.959Z,100.00
2023-05-17T06:19:50.366Z,100.00
2023-05-17T06:24:46.054Z,100.00
2023-05-17T06:29:39.337Z,100.00
2023-05-17T06:34:35.162Z,100.00
2023-05-17T06:39:28.813Z,98.50
2023-05-17T06:44:26.120Z,96.89
2023-05-17T06:49:19.244Z,95.70
2023-05-17T06:54:12.454Z,94.36
2023-05-17T06:59:05.597Z,93.42
2023-05-17T07:04:00.273Z,95.08
2023-05-17T07:08:53.889Z,95.07
2023-05-17T07:13:47.107Z,94.33
2023-05-17T07:18:40.367Z,94.50
2023-05-17T07:23:34.976Z,95.45
2023-05-17T07:28:28.263Z,95.19
2023-05-17T07:33:21.465Z,94.05
2023-05-17T07:38:16.646Z,93.83
2023-05-17T07:43:11.277Z,95.74
2023-05-17T07:48:04.602Z,96.80
2023-05-17T07:52:58.555Z,97.67
2023-05-17T07:57:52.670Z,97.69
2023-05-17T08:02:47.357Z,99.00
2023-05-17T08:07:45.656Z,98.53
2023-05-17T08:12:39.956Z,97.10
2023-05-17T08:17:34.037Z,97.23
2023-05-17T08:22:28.612Z,96.78
2023-05-17T08:27:22.220Z,96.11
2023-05-17T08:32:16.516Z,96.47
2023-05-17T08:37:10.201Z,96.77
2023-05-17T08:42:12.070Z,99.42
2023-05-17T08:47:05.620Z,100.00
2023-05-17T08:52:10.058Z,100.00
2023-05-17T08:57:09.135Z,100.00
2023-05-17T09:02:04.044Z,100.00
2023-05-17T09:06:57.222Z,100.00
2023-05-17T09:11:50.405Z,100.00
2023-05-17T09:16:46.067Z,100.00
2023-05-17T09:21:39.701Z,100.00
2023-05-17T09:26:41.591Z,100.00
2023-05-17T09:31:35.190Z,100.00
2023-05-17T09:36:29.738Z,99.39
2023-05-17T09:41:23.518Z,100.00
2023-05-17T09:46:17.135Z,100.00
2023-05-17T09:51:10.254Z,99.95
2023-05-17T09:56:08.155Z,99.45
2023-05-17T10:01:04.883Z,98.81
2023-05-17T10:05:59.710Z,100.00
2023-05-17T10:10:55.779Z,100.00
2023-05-17T10:15:54.052Z,100.00
2023-05-17T10:20:48.594Z,100.00
2023-05-17T10:25:46.304Z,100.00
2023-05-17T10:30:40.754Z,100.00
2023-05-17T10:35:36.229Z,100.00
2023-05-17T10:40:32.199Z,100.00
2023-05-17T10:45:27.268Z,100.00
2023-05-17T10:50:24.400Z,100.00
2023-05-17T10:55:25.039Z,100.00
2023-05-17T11:00:22.134Z,100.00
2023-05-17T11:05:25.125Z,100.00
2023-05-17T11:10:18.602Z,98.26
2023-05-17T11:15:14.444Z,96.73
2023-05-17T11:20:16.655Z,96.38
2023-05-17T11:25:12.654Z,96.96
2023-05-17T11:30:17.229Z,97.34
2023-05-17T11:35:14.655Z,99.40
2023-05-17T11:40:13.469Z,96.36
2023-05-17T11:45:12.026Z,94.92
2023-05-17T11:50:07.933Z,92.32
2023-05-17T11:55:07.750Z,89.84
2023-05-17T12:00:01.688Z,87.58
2023-05-17T12:04:54.954Z,87.65
2023-05-17T12:09:50.351Z,86.33
2023-05-17T12:14:48.358Z,82.56
2023-05-17T12:19:42.622Z,84.13
2023-05-17T12:24:43.452Z,85.98
2023-05-17T12:29:38.406Z,84.78
2023-05-17T12:34:34.396Z,86.32
2023-05-17T12:39:27.789Z,88.13
2023-05-17T12:44:24.264Z,86.47
2023-05-17T12:49:22.077Z,87.77
2023-05-17T12:54:26.308Z,88.03
2023-05-17T12:59:25.713Z,85.57
2023-05-17T13:04:22.191Z,85.63
2023-05-17T13:09:19.948Z,84.35
2023-05-17T13:14:15.487Z,80.31
2023-05-17T13:19:19.654Z,79.21
2023-05-17T13:24:17.314Z,77.65
2023-05-17T13:29:10.566Z,76.93
2023-05-17T13:34:03.992Z,78.32
2023-05-17T13:39:02.875Z,80.79
2023-05-17T13:43:59.846Z,80.83
2023-05-17T13:48:53.513Z,82.71
2023-05-17T13:53:47.032Z,81.65
2023-05-17T13:58:40.291Z,80.40
2023-05-17T14:03:35.320Z,80.98
2023-05-17T14:08:39.581Z,79.66
2023-05-17T14:13:55.653Z,77.59
2023-05-17T14:18:50.387Z,78.18
2023-05-17T14:23:43.854Z,78.87
2023-05-17T14:28:46.383Z,79.42
2023-05-17T14:33:39.628Z,81.25
2023-05-17T14:38:34.364Z,81.92
2023-05-17T14:43:28.236Z,83.81
2023-05-17T14:48:21.819Z,86.48
2023-05-17T14:53:15.199Z,88.78
2023-05-17T14:58:14.171Z,91.13
2023-05-17T15:03:07.533Z,93.24
2023-05-17T15:08:02.355Z,95.82
2023-05-17T15:12:55.432Z,97.39
2023-05-17T15:17:51.955Z,99.05
2023-05-17T15:22:47.271Z,100.00
2023-05-17T15:27:40.992Z,100.00
2023-05-17T15:32:35.274Z,100.00
2023-05-17T15:37:29.794Z,100.00
2023-05-17T15:42:22.952Z,100.00
2023-05-17T15:47:16.127Z,100.00
2023-05-17T15:52:09.415Z,100.00
2023-05-17T15:57:03.899Z,100.00
2023-05-17T16:01:57.093Z,100.00
2023-05-17T16:06:50.221Z,100.00
2023-05-17T16:11:43.520Z,100.00
2023-05-17T16:16:38.021Z,100.00
2023-05-17T16:21:31.361Z,100.00
2023-05-17T16:26:25.219Z,100.00
2023-05-17T16:31:18.452Z,100.00
2023-05-17T16:36:13.067Z,100.00
2023-05-17T16:41:06.210Z,100.00
2023-05-17T16:45:59.453Z,100.00
2023-05-17T16:50:52.548Z,100.00
2023-05-17T16:55:47.161Z,100.00
2023-05-17T17:00:40.569Z,100.00
2023-05-17T17:05:33.698Z,100.00
2023-05-17T17:10:26.868Z,100.00
2023-05-17T17:15:24.229Z,100.00
2023-05-17T17:20:17.765Z,100.00
2023-05-17T17:25:12.471Z,100.00
2023-05-17T17:30:06.528Z,100.00
2023-05-17T17:35:01.183Z,100.00
2023-05-17T17:39:54.354Z,97.67
2023-05-17T17:44:47.608Z,94.61
2023-05-17T17:49:50.018Z,90.96
2023-05-17T17:54:46.140Z,88.88
2023-05-17T17:59:39.608Z,86.77
2023-05-17T18:04:32.814Z,86.19
2023-05-17T18:09:26.044Z,85.09
2023-05-17T18:14:21.822Z,84.17
2023-05-17T18:19:15.071Z,83.08
2023-05-17T18:24:09.155Z,83.37
2023-05-17T18:29:02.838Z,81.52
2023-05-17T18:33:59.959Z,81.90
2023-05-17T18:38:55.368Z,80.63
2023-05-17T18:43:48.534Z,79.15
2023-05-17T18:48:41.675Z,78.47
2023-05-17T18:53:36.832Z,77.50
2023-05-17T18:58:30.176Z,76.75
2023-05-17T19:03:23.812Z,76.87
2023-05-17T19:08:24.234Z,76.64
2023-05-17T19:13:18.705Z,75.73
2023-05-17T19:18:14.992Z,75.11
2023-05-17T19:23:08.218Z,74.91
2023-05-17T19:28:04.294Z,75.42
2023-05-17T19:33:05.829Z,75.06
2023-05-17T19:38:00.170Z,75.63
2023-05-17T19:42:56.144Z,76.10
2023-05-17T19:47:49.419Z,78.02
2023-05-17T19:52:43.898Z,79.88
2023-05-17T19:57:37.050Z,82.29
2023-05-17T20:02:30.515Z,85.72
2023-05-17T20:07:25.960Z,85.96
2023-05-17T20:12:20.676Z,87.37
2023-05-17T20:17:14.686Z,87.80
2023-05-17T20:22:07.951Z,87.67
2023-05-17T20:27:01.219Z,87.16
2023-05-17T20:31:58.821Z,87.65
2023-05-17T20:36:52.065Z,87.67
2023-05-17T20:41:45.184Z,88.45
2023-05-17T20:46:38.692Z,89.22
2023-05-17T20:51:33.277Z,88.51
2023-05-17T21:03:39.805Z,87.96
2023-05-17T21:08:36.625Z,87.74
2023-05-17T21:13:29.701Z,87.56
2023-05-17T21:18:23.446Z,87.03
2023-05-17T21:23:16.628Z,87.20
2023-05-17T21:28:13.469Z,87.08
2023-05-17T21:39:17.388Z,87.28
2023-05-17T21:44:11.852Z,87.14
2023-05-17T21:49:05.058Z,87.89
2023-05-17T21:53:58.259Z,88.25
2023-05-17T21:58:52.386Z,88.51
2023-05-17T22:03:47.771Z,88.65
2023-05-17T22:08:42.367Z,88.46
2023-05-17T22:13:35.468Z,88.42
2023-05-17T22:18:32.257Z,88.99
2023-05-17T22:23:26.964Z,89.43
2023-05-17T22:28:20.134Z,89.88
2023-05-17T22:33:13.513Z,90.92
2023-05-17T22:38:06.664Z,92.58
2023-05-17T22:43:01.412Z,94.11
2023-05-17T22:47:54.612Z,95.24
2023-05-17T22:52:50.799Z,96.20
2023-05-17T22:57:44.010Z,97.90
2023-05-17T23:02:38.592Z,98.83
2023-05-17T23:07:38.194Z,98.25
2023-05-17T23:12:31.665Z,99.88
2023-05-17T23:17:24.889Z,100.00
2023-05-17T23:22:19.847Z,100.00
2023-05-17T23:27:14.084Z,100.00
2023-05-17T23:32:07.366Z,100.00
2023-05-17T23:37:00.404Z,100.00
2023-05-17T23:41:54.954Z,100.00
2023-05-17T23:46:48.059Z,99.08
2023-05-17T23:51:41.318Z,99.62
2023-05-17T23:56:34.361Z,99.68
